createdAt,value
2022-11-13T00:02:15.397Z,2.70
2022-11-13T00:05:01.765Z,2.88
2022-11-13T00:07:47.320Z,2.60
2022-11-13T00:10:38.200Z,3.00
2022-11-13T00:13:30.036Z,4.00
2022-11-13T00:16:21.617Z,3.30
2022-11-13T00:19:10.053Z,2.83
2022-11-13T00:22:03.828Z,3.28
2022-11-13T00:24:49.685Z,2.90
2022-11-13T00:27:36.190Z,3.28
2022-11-13T00:30:24.777Z,3.17
2022-11-13T00:33:11.782Z,2.42
2022-11-13T00:36:26.034Z,2.28
2022-11-13T00:39:23.762Z,3.90
2022-11-13T00:42:09.553Z,3.90
2022-11-13T00:45:10.365Z,3.05
2022-11-13T00:48:12.519Z,3.05
2022-11-13T00:51:10.574Z,3.15
2022-11-13T00:53:56.616Z,2.63
2022-11-13T00:56:49.180Z,2.97
2022-11-13T00:59:37.728Z,2.53
2022-11-13T01:02:26.604Z,1.98
2022-11-13T01:05:12.582Z,2.33
2022-11-13T01:08:00.855Z,2.97
2022-11-13T01:10:56.086Z,2.47
2022-11-13T01:13:46.617Z,3.13
2022-11-13T01:16:35.489Z,3.00
2022-11-13T01:19:28.674Z,3.00
2022-11-13T01:22:14.491Z,2.78
2022-11-13T01:25:00.393Z,4.28
2022-11-13T01:27:50.947Z,3.33
2022-11-13T01:30:40.422Z,2.63
2022-11-13T01:33:27.553Z,2.63
2022-11-13T01:36:18.241Z,2.10
2022-11-13T01:39:03.916Z,2.33
2022-11-13T01:41:49.480Z,2.92
2022-11-13T01:44:54.801Z,2.55
2022-11-13T01:47:40.752Z,2.50
2022-11-13T01:50:26.439Z,2.53
2022-11-13T01:53:12.722Z,2.78
2022-11-13T01:55:58.076Z,2.17
2022-11-13T01:58:49.272Z,2.30
2022-11-13T02:01:35.240Z,3.22
2022-11-13T02:04:21.298Z,2.78
2022-11-13T02:07:15.539Z,2.10
2022-11-13T02:10:05.849Z,2.00
2022-11-13T02:12:53.967Z,2.38
2022-11-13T02:15:40.613Z,1.58
2022-11-13T02:18:31.311Z,2.95
2022-11-13T02:21:37.193Z,1.52
2022-11-13T02:24:28.777Z,2.33
2022-11-13T02:27:34.415Z,2.15
2022-11-13T02:30:27.260Z,1.52
2022-11-13T02:33:30.904Z,1.80
2022-11-13T02:36:18.922Z,2.13
2022-11-13T02:39:13.241Z,2.25
2022-11-13T02:41:58.902Z,1.77
2022-11-13T02:44:49.573Z,1.73
2022-11-13T02:47:39.756Z,1.92
2022-11-13T02:50:25.128Z,2.47
2022-11-13T02:53:10.437Z,3.13
2022-11-13T02:55:56.107Z,1.65
2022-11-13T02:58:41.518Z,1.55
2022-11-13T03:01:30.190Z,2.20
2022-11-13T03:04:17.990Z,2.47
2022-11-13T03:07:03.447Z,2.00
2022-11-13T03:09:49.270Z,1.90
2022-11-13T03:12:38.411Z,2.28
2022-11-13T03:15:27.516Z,2.45
2022-11-13T03:18:34.795Z,2.20
2022-11-13T03:21:26.002Z,1.73
2022-11-13T03:24:11.703Z,1.55
2022-11-13T03:26:59.123Z,2.42
2022-11-13T03:29:44.821Z,2.53
2022-11-13T03:32:30.840Z,2.80
2022-11-13T03:35:17.546Z,1.40
2022-11-13T03:38:03.279Z,1.90
2022-11-13T03:40:49.277Z,2.30
2022-11-13T03:43:34.671Z,2.45
2022-11-13T03:46:20.202Z,2.70
2022-11-13T03:49:05.721Z,2.35
2022-11-13T03:51:56.595Z,2.72
2022-11-13T03:54:42.347Z,2.47
2022-11-13T03:57:28.136Z,2.72
2022-11-13T04:00:14.923Z,1.83
2022-11-13T04:03:00.557Z,2.60
2022-11-13T04:05:48.987Z,2.10
2022-11-13T04:08:37.378Z,3.15
2022-11-13T04:11:26.231Z,2.47
2022-11-13T04:14:14.727Z,2.15
2022-11-13T04:17:05.705Z,2.42
2022-11-13T04:19:54.350Z,2.55
2022-11-13T04:22:41.733Z,2.08
2022-11-13T04:25:27.715Z,2.78
2022-11-13T04:28:13.962Z,2.45
2022-11-13T04:31:01.461Z,2.63
2022-11-13T04:33:47.197Z,2.65
2022-11-13T04:36:32.541Z,2.95
2022-11-13T04:39:18.014Z,2.67
2022-11-13T04:42:22.002Z,3.58
2022-11-13T04:45:08.636Z,3.70
2022-11-13T04:47:54.839Z,3.00
2022-11-13T04:50:40.208Z,3.30
2022-11-13T04:53:26.108Z,3.38
2022-11-13T04:56:11.606Z,2.42
2022-11-13T04:58:58.121Z,3.70
2022-11-13T05:01:49.971Z,3.15
2022-11-13T05:04:38.738Z,3.30
2022-11-13T05:07:26.423Z,3.00
2022-11-13T05:10:11.983Z,3.83
2022-11-13T05:12:57.569Z,3.00
2022-11-13T05:15:42.992Z,3.78
2022-11-13T05:18:31.739Z,3.28
2022-11-13T05:21:17.829Z,2.53
2022-11-13T05:24:04.138Z,3.28
2022-11-13T05:26:49.912Z,2.90
2022-11-13T05:29:41.245Z,2.10
2022-11-13T05:32:27.201Z,2.97
2022-11-13T05:35:12.920Z,3.22
2022-11-13T05:38:02.124Z,3.03
2022-11-13T05:40:51.946Z,3.75
2022-11-13T05:43:42.254Z,3.20
2022-11-13T05:46:31.065Z,2.88
2022-11-13T05:49:16.545Z,2.55
2022-11-13T05:52:01.904Z,4.03
2022-11-13T05:54:47.436Z,3.20
2022-11-13T05:57:32.902Z,2.90
2022-11-13T06:00:18.961Z,3.08
2022-11-13T06:03:04.501Z,3.05
2022-11-13T06:05:51.465Z,2.58
2022-11-13T06:08:37.665Z,2.95
2022-11-13T06:11:33.029Z,2.83
2022-11-13T06:14:18.675Z,3.30
2022-11-13T06:17:04.080Z,3.10
2022-11-13T06:19:49.453Z,2.58
2022-11-13T06:22:34.823Z,2.75
2022-11-13T06:25:20.127Z,3.20
2022-11-13T06:28:05.624Z,3.88
2022-11-13T06:30:51.077Z,3.40
2022-11-13T06:33:37.436Z,3.70
2022-11-13T06:36:26.801Z,2.50
2022-11-13T06:39:12.573Z,2.67
2022-11-13T06:41:58.288Z,2.80
2022-11-13T06:44:43.675Z,2.33
2022-11-13T06:47:38.855Z,3.65
2022-11-13T06:50:28.475Z,3.00
2022-11-13T06:53:14.579Z,2.55
2022-11-13T06:56:10.884Z,3.15
2022-11-13T06:58:59.983Z,2.58
2022-11-13T07:01:55.229Z,2.47
2022-11-13T07:05:50.984Z,2.70
2022-11-13T07:08:36.571Z,3.00
2022-11-13T07:11:23.891Z,2.47
2022-11-13T07:14:12.835Z,2.30
2022-11-13T07:17:09.220Z,2.38
2022-11-13T07:19:55.832Z,2.50
2022-11-13T07:22:41.146Z,2.72
2022-11-13T07:25:28.073Z,2.50
2022-11-13T07:28:13.480Z,2.10
2022-11-13T07:30:59.557Z,2.92
2022-11-13T07:33:47.585Z,2.80
2022-11-13T07:36:33.230Z,2.50
2022-11-13T07:39:18.763Z,1.88
2022-11-13T07:42:04.556Z,2.08
2022-11-13T07:44:57.092Z,2.88
2022-11-13T07:47:42.413Z,2.50
2022-11-13T07:50:34.920Z,2.45
2022-11-13T07:53:22.658Z,1.95
2022-11-13T07:56:08.534Z,2.50
2022-11-13T07:58:57.328Z,2.28
2022-11-13T08:01:42.558Z,2.40
2022-11-13T08:04:29.561Z,2.05
2022-11-13T08:07:15.166Z,2.50
2022-11-13T08:10:01.077Z,2.10
2022-11-13T08:12:46.819Z,1.48
2022-11-13T08:15:33.315Z,1.85
2022-11-13T08:18:18.961Z,2.25
2022-11-13T08:21:09.182Z,2.55
2022-11-13T08:23:57.829Z,2.78
2022-11-13T08:26:43.468Z,2.65
2022-11-13T08:29:29.337Z,2.38
2022-11-13T08:32:16.142Z,2.63
2022-11-13T08:35:01.913Z,2.28
2022-11-13T08:37:47.714Z,3.85
2022-11-13T08:40:33.398Z,3.08
2022-11-13T08:43:19.668Z,2.83
2022-11-13T08:46:05.769Z,4.35
2022-11-13T08:48:53.943Z,2.63
2022-11-13T08:51:41.933Z,3.50
2022-11-13T08:54:27.541Z,2.17
2022-11-13T08:57:13.297Z,3.05
2022-11-13T08:59:58.862Z,2.45
2022-11-13T09:02:45.342Z,3.22
2022-11-13T09:05:31.292Z,2.58
2022-11-13T09:08:17.104Z,2.97
2022-11-13T09:11:06.844Z,3.53
2022-11-13T09:13:54.833Z,3.25
2022-11-13T09:16:40.594Z,3.85
2022-11-13T09:19:27.384Z,5.10
2022-11-13T09:22:13.014Z,4.15
2022-11-13T09:24:58.927Z,5.78
2022-11-13T09:27:44.181Z,4.22
2022-11-13T09:30:33.471Z,3.67
2022-11-13T09:33:19.192Z,3.63
2022-11-13T09:36:12.048Z,2.53
2022-11-13T09:41:51.855Z,3.42
2022-11-13T09:44:45.415Z,4.47
2022-11-13T09:47:37.705Z,3.63
2022-11-13T09:50:27.890Z,3.97
2022-11-13T09:53:14.818Z,3.58
2022-11-13T09:56:27.395Z,3.47
2022-11-13T09:59:39.939Z,3.60
2022-11-13T10:03:00.245Z,3.10
2022-11-13T10:05:51.972Z,3.55
2022-11-13T10:08:46.783Z,4.05
2022-11-13T10:11:46.515Z,4.38
2022-11-13T10:14:44.197Z,2.95
2022-11-13T10:17:36.807Z,4.35
2022-11-13T10:20:25.430Z,3.28
2022-11-13T10:23:24.861Z,3.70
2022-11-13T10:26:19.964Z,4.00
2022-11-13T10:29:20.802Z,4.97
2022-11-13T10:32:27.992Z,3.30
2022-11-13T10:35:42.271Z,3.00
2022-11-13T10:38:55.267Z,3.17
2022-11-13T10:41:52.864Z,3.75
2022-11-13T10:44:40.777Z,3.00
2022-11-13T10:48:01.910Z,3.88
2022-11-13T10:50:35.712Z,3.92
2022-11-13T10:53:21.301Z,2.25
2022-11-13T10:56:35.572Z,3.25
2022-11-13T10:59:21.485Z,2.97
2022-11-13T11:02:19.161Z,3.22
2022-11-13T11:05:26.598Z,3.42
2022-11-13T11:08:15.556Z,3.50
2022-11-13T11:11:37.320Z,3.35
2022-11-13T11:14:30.824Z,3.80
2022-11-13T11:17:18.663Z,2.72
2022-11-13T11:20:33.515Z,3.05
2022-11-13T11:23:19.051Z,3.30
2022-11-13T11:26:20.803Z,2.50
2022-11-13T11:29:21.978Z,2.80
2022-11-13T11:32:19.241Z,2.00
2022-11-13T11:35:16.384Z,2.65
2022-11-13T11:38:10.305Z,2.53
2022-11-13T11:41:18.046Z,2.75
2022-11-13T11:44:09.387Z,2.72
2022-11-13T11:46:58.919Z,2.50
2022-11-13T11:49:45.733Z,2.20
2022-11-13T11:52:52.639Z,2.75
2022-11-13T11:56:02.186Z,2.10
2022-11-13T11:59:02.966Z,2.90
2022-11-13T12:02:41.534Z,3.17
2022-11-13T12:05:44.326Z,2.90
2022-11-13T12:08:59.301Z,2.90
2022-11-13T12:12:25.891Z,2.30
2022-11-13T12:15:20.383Z,2.30
2022-11-13T12:18:33.267Z,3.38
2022-11-13T12:21:34.717Z,2.50
2022-11-13T12:24:41.797Z,2.42
2022-11-13T12:27:38.810Z,1.85
2022-11-13T12:30:32.120Z,2.80
2022-11-13T12:33:39.434Z,2.83
2022-11-13T12:36:25.973Z,2.63
2022-11-13T12:39:17.201Z,2.17
2022-11-13T12:42:26.688Z,2.97
2022-11-13T12:45:24.669Z,3.45
2022-11-13T12:48:22.800Z,2.90
2022-11-13T12:51:11.277Z,6.80
2022-11-13T12:54:04.120Z,2.92
2022-11-13T12:59:39.508Z,2.35
2022-11-13T13:03:02.638Z,1.63
2022-11-13T13:06:08.355Z,2.92
2022-11-13T13:09:20.244Z,4.65
2022-11-13T13:12:38.032Z,2.25
2022-11-13T13:15:34.713Z,2.03
2022-11-13T13:18:20.491Z,2.92
2022-11-13T13:21:15.007Z,2.17
2022-11-13T13:24:09.244Z,1.67
2022-11-13T13:26:55.482Z,2.28
2022-11-13T13:29:41.992Z,2.38
2022-11-13T13:32:48.514Z,2.15
2022-11-13T13:35:57.533Z,2.03
2022-11-13T13:39:03.961Z,2.50
2022-11-13T13:41:58.898Z,2.22
2022-11-13T13:44:46.921Z,1.85
2022-11-13T13:47:40.560Z,2.53
2022-11-13T13:50:39.472Z,2.40
2022-11-13T13:53:30.497Z,2.72
2022-11-13T13:56:16.985Z,2.00
2022-11-13T13:59:02.970Z,1.80
2022-11-13T14:02:24.181Z,1.98
2022-11-13T14:05:37.516Z,1.27
2022-11-13T14:08:25.930Z,1.70
2022-11-13T14:11:30.100Z,1.50
2022-11-13T14:14:22.240Z,1.52
2022-11-13T14:17:10.918Z,1.97
2022-11-13T14:20:01.007Z,2.42
2022-11-13T14:22:56.685Z,1.83
2022-11-13T14:25:43.465Z,2.17
2022-11-13T14:28:34.582Z,2.00
2022-11-13T14:31:20.404Z,1.48
2022-11-13T14:34:14.556Z,1.17
2022-11-13T14:37:36.912Z,2.03
2022-11-13T14:40:24.751Z,0.80
2022-11-13T14:43:20.673Z,1.27
2022-11-13T14:46:28.365Z,1.25
2022-11-13T14:49:25.831Z,1.05
2022-11-13T14:52:25.543Z,1.55
2022-11-13T14:55:31.584Z,1.63
2022-11-13T14:58:28.280Z,1.33
2022-11-13T15:01:15.218Z,0.98
2022-11-13T15:04:00.889Z,1.73
2022-11-13T15:06:46.321Z,1.35
2022-11-13T15:09:32.103Z,1.73
2022-11-13T15:12:17.396Z,0.93
2022-11-13T15:15:02.845Z,0.95
2022-11-13T15:17:50.441Z,1.20
2022-11-13T15:20:36.248Z,1.63
2022-11-13T15:23:29.303Z,2.05
2022-11-13T15:26:15.716Z,1.75
2022-11-13T15:29:01.547Z,1.92
2022-11-13T15:31:47.819Z,2.13
2022-11-13T15:34:33.247Z,2.00
2022-11-13T15:37:18.772Z,2.08
2022-11-13T15:40:05.488Z,2.85
2022-11-13T15:42:50.926Z,2.47
2022-11-13T15:45:41.190Z,2.00
2022-11-13T15:48:29.887Z,2.35
2022-11-13T15:51:24.117Z,2.53
2022-11-13T15:54:29.687Z,3.83
2022-11-13T15:57:29.470Z,2.88
2022-11-13T16:00:17.502Z,3.33
2022-11-13T16:03:04.848Z,3.42
2022-11-13T16:05:51.225Z,2.03
2022-11-13T16:08:36.592Z,2.42
2022-11-13T16:11:22.541Z,1.92
2022-11-13T16:14:08.475Z,1.77
2022-11-13T16:16:54.869Z,2.10
2022-11-13T16:19:42.037Z,1.77
2022-11-13T16:22:27.986Z,2.05
2022-11-13T16:25:18.927Z,3.38
2022-11-13T16:28:06.610Z,2.22
2022-11-13T16:30:53.417Z,2.47
2022-11-13T16:33:54.275Z,2.15
2022-11-13T16:36:40.662Z,2.75
2022-11-13T16:39:26.522Z,1.95
2022-11-13T16:42:13.290Z,2.40
2022-11-13T16:44:59.208Z,2.17
2022-11-13T16:47:45.634Z,2.05
2022-11-13T16:50:43.232Z,3.92
2022-11-13T16:53:29.301Z,2.38
2022-11-13T16:56:25.001Z,2.80
2022-11-13T16:59:11.379Z,2.83
2022-11-13T17:01:57.429Z,2.90
2022-11-13T17:04:44.083Z,2.47
2022-11-13T17:07:30.043Z,2.80
2022-11-13T17:10:33.095Z,2.92
2022-11-13T17:16:05.388Z,2.35
2022-11-13T17:18:54.152Z,2.00
2022-11-13T17:21:48.399Z,2.20
2022-11-13T17:24:34.117Z,2.38
2022-11-13T17:27:29.721Z,2.05
2022-11-13T17:30:15.731Z,2.42
2022-11-13T17:33:01.258Z,3.92
2022-11-13T17:36:05.048Z,2.25
2022-11-13T17:38:52.947Z,2.17
2022-11-13T17:41:38.656Z,2.50
2022-11-13T17:44:24.166Z,3.25
2022-11-13T17:47:09.812Z,2.95
2022-11-13T17:49:56.163Z,2.10
2022-11-13T17:52:41.761Z,2.35
2022-11-13T17:55:27.360Z,2.47
2022-11-13T17:58:12.960Z,1.95
2022-11-13T18:01:09.962Z,2.08
2022-11-13T18:03:56.536Z,2.55
2022-11-13T18:06:42.258Z,1.90
2022-11-13T18:09:50.853Z,2.13
2022-11-13T18:12:42.005Z,2.08
2022-11-13T18:15:27.900Z,2.50
2022-11-13T18:18:13.486Z,1.92
2022-11-13T18:21:22.405Z,1.73
2022-11-13T18:24:17.237Z,2.95
2022-11-13T18:27:06.266Z,1.77
2022-11-13T18:29:54.295Z,2.65
2022-11-13T18:32:40.025Z,2.97
2022-11-13T18:35:28.546Z,2.20
2022-11-13T18:38:14.001Z,3.13
2022-11-13T18:41:07.756Z,2.45
2022-11-13T18:43:53.634Z,2.67
2022-11-13T18:46:39.493Z,3.95
2022-11-13T18:49:25.355Z,9.00
2022-11-13T18:52:10.898Z,20.38
2022-11-13T18:54:56.245Z,13.82
2022-11-13T18:57:41.516Z,9.23
2022-11-13T19:00:29.640Z,8.98
2022-11-13T19:03:16.741Z,8.38
2022-11-13T19:06:02.154Z,6.28
2022-11-13T19:08:56.423Z,4.85
2022-11-13T19:11:44.825Z,6.28
2022-11-13T19:14:30.365Z,4.60
2022-11-13T19:17:15.861Z,5.18
2022-11-13T19:20:01.371Z,3.60
2022-11-13T19:22:46.676Z,3.92
2022-11-13T19:25:32.034Z,4.00
2022-11-13T19:28:17.966Z,3.97
2022-11-13T19:31:12.719Z,3.03
2022-11-13T19:34:01.362Z,4.68
2022-11-13T19:36:49.467Z,2.30
2022-11-13T19:39:35.659Z,3.58
2022-11-13T19:42:21.554Z,2.90
2022-11-13T19:45:07.739Z,2.22
2022-11-13T19:47:56.021Z,2.80
2022-11-13T19:50:43.931Z,2.65
2022-11-13T19:53:31.401Z,2.65
2022-11-13T19:56:20.818Z,3.13
2022-11-13T19:59:09.935Z,2.70
2022-11-13T20:01:55.722Z,2.72
2022-11-13T20:04:41.320Z,3.05
2022-11-13T20:07:28.117Z,3.05
2022-11-13T20:10:15.777Z,3.05
2022-11-13T20:13:01.335Z,1.50
2022-11-13T20:15:54.532Z,2.58
2022-11-13T20:18:43.301Z,3.35
2022-11-13T20:21:33.385Z,2.80
2022-11-13T20:24:19.114Z,2.95
2022-11-13T20:27:04.622Z,2.25
2022-11-13T20:29:50.318Z,3.03
2022-11-13T20:32:39.726Z,1.83
2022-11-13T20:35:25.246Z,2.60
2022-11-13T20:38:10.949Z,2.63
2022-11-13T20:40:56.651Z,2.22
2022-11-13T20:43:42.341Z,2.67
2022-11-13T20:46:28.374Z,3.72
2022-11-13T20:49:13.948Z,3.08
2022-11-13T20:51:59.347Z,2.85
2022-11-13T20:54:44.991Z,2.60
2022-11-13T20:57:30.706Z,2.38
2022-11-13T21:00:17.204Z,2.88
2022-11-13T21:03:03.801Z,3.85
2022-11-13T21:05:49.284Z,5.03
2022-11-13T21:08:34.824Z,3.88
2022-11-13T21:11:30.230Z,3.67
2022-11-13T21:14:16.033Z,3.53
2022-11-13T21:17:01.743Z,2.35
2022-11-13T21:19:47.007Z,3.38
2022-11-13T21:22:32.565Z,3.72
2022-11-13T21:25:19.807Z,3.30
2022-11-13T21:28:06.454Z,3.42
2022-11-13T21:30:53.381Z,4.07
2022-11-13T21:33:40.814Z,3.47
2022-11-13T21:36:28.703Z,4.63
2022-11-13T21:39:14.397Z,4.85
2022-11-13T21:42:00.110Z,4.10
2022-11-13T21:44:45.487Z,4.28
2022-11-13T21:47:30.837Z,3.38
2022-11-13T21:50:16.405Z,5.13
2022-11-13T21:53:01.883Z,5.30
2022-11-13T21:55:51.000Z,3.28
2022-11-13T21:58:39.250Z,4.05
2022-11-13T22:01:25.697Z,4.60
2022-11-13T22:04:11.570Z,4.70
2022-11-13T22:06:56.729Z,3.67
2022-11-13T22:09:42.822Z,4.43
2022-11-13T22:12:28.387Z,4.38
2022-11-13T22:15:17.086Z,3.90
2022-11-13T22:18:02.507Z,5.00
2022-11-13T22:20:49.370Z,4.78
2022-11-13T22:23:36.010Z,5.55
2022-11-13T22:26:26.211Z,6.15
2022-11-13T22:29:12.072Z,4.53
2022-11-13T22:31:57.448Z,5.07
2022-11-13T22:34:43.046Z,7.85
2022-11-13T22:37:28.717Z,6.03
2022-11-13T22:40:15.128Z,7.35
2022-11-13T22:43:00.750Z,5.90
2022-11-13T22:45:48.582Z,6.05
2022-11-13T22:48:35.829Z,7.55
2022-11-13T22:51:27.140Z,7.07
2022-11-13T22:54:13.007Z,5.07
2022-11-13T22:57:01.177Z,6.28
2022-11-13T22:59:46.372Z,4.72
2022-11-13T23:02:31.644Z,6.78
2022-11-13T23:05:17.262Z,9.40
2022-11-13T23:08:02.587Z,8.27
2022-11-13T23:10:56.726Z,9.77
2022-11-13T23:13:49.282Z,7.25
2022-11-13T23:16:34.968Z,7.63
2022-11-13T23:19:20.783Z,8.75
2022-11-13T23:22:06.471Z,8.07
2022-11-13T23:24:51.987Z,7.72
2022-11-13T23:27:37.674Z,7.20
2022-11-13T23:30:22.894Z,9.02
2022-11-13T23:33:08.273Z,11.38
2022-11-13T23:35:57.282Z,10.57
2022-11-13T23:38:42.850Z,13.20
2022-11-13T23:41:28.131Z,11.93
2022-11-13T23:44:13.464Z,12.18
2022-11-13T23:46:58.812Z,10.68
2022-11-13T23:49:44.246Z,11.15
2022-11-13T23:52:29.684Z,13.30
2022-11-13T23:55:15.956Z,11.13
2022-11-13T23:58:03.941Z,12.68
